Portada
METAR-TAF:

METAR-TAF

Aeroports :

Greenbrier Valley Airport

Lewisburg, Virgínia de l'Oest, Estats Units d'Amèrica

latitud: 37-52N, longitud: 080-24W, altitud: 702 m

Observació

L'informe es va fer fa 37 minuts, a les 21:59 UTC
Vent calma
Temperatura 0°C
Humitat 34%
Pressió 1024 hPa
Visibilitat: 16.1 km
Cel clar

METAR: KLWB 132159Z 00000KT 10SM SKC 00/M14 A3024

Hora: 17:36 (22:36 UTC)

Pronòstic

L'informe es va fer fa 5 hores i 10 minuts, a les 17:26 UTC
Pronòstic vàlid del 13 a les 18 UTC al 14 a les 18 UTC
Vent 5 kt del Sud/Sud-Est
Visibilitat: 10 km
Escasses núvols a una alçada de 25000 ft
A partir de les 13 a les 2300 UTC
Vent 3 kt amb direcció variable
Visibilitat: 10 km
Núvols disperses a una alçada de 25000 ft
A partir de les 14 a les 1700 UTC
Vent 4 kt del Sud-Oest
Visibilitat: 10 km
Cel ennuvolat a una alçada de 25000 ft

TAF: KLWB 131726Z 1318/1418 15005KT P6SM FEW250 FM132300 VRB03KT P6SM SCT250 FM141700 23004KT P6SM BKN250

Observacions i pronòstics meteorològics de més de 4000 aeroports (METAR i TAF).

Les estacions disponibles són els punts grocs i vermells al mapa.

Posi el ratolí al punt desitjat per veure el nom de l'estació.

Feu clic per veure les observacions i els pronòstics meteorològics.

Per canviar el mapa: feu clic els botons verds amb una creu de color negre per apropar; al botó verd amb un guió per allunyar la imatge; o en les fletxes verdes per a mapes adjacents.


METAR-TAF: